sensor_id;sensor_type;location;lat;lon;timestamp;P1;durP1;ratioP1;P2;durP2;ratioP2
54261;SDS011;40174;52.364;6.452;2023-08-17T00:02:12;4.93;;;1.98;;
54261;SDS011;40174;52.364;6.452;2023-08-17T00:04:39;3.42;;;1.40;;
54261;SDS011;40174;52.364;6.452;2023-08-17T00:07:06;3.33;;;1.15;;
54261;SDS011;40174;52.364;6.452;2023-08-17T00:09:32;2.47;;;1.05;;
54261;SDS011;40174;52.364;6.452;2023-08-17T00:11:59;2.60;;;1.00;;
54261;SDS011;40174;52.364;6.452;2023-08-17T00:14:26;2.53;;;1.42;;
54261;SDS011;40174;52.364;6.452;2023-08-17T00:16:52;2.83;;;1.17;;
54261;SDS011;40174;52.364;6.452;2023-08-17T00:19:20;3.28;;;1.08;;
54261;SDS011;40174;52.364;6.452;2023-08-17T00:21:47;5.22;;;1.15;;
54261;SDS011;40174;52.364;6.452;2023-08-17T00:24:14;4.93;;;1.50;;
54261;SDS011;40174;52.364;6.452;2023-08-17T00:26:40;4.40;;;1.20;;
54261;SDS011;40174;52.364;6.452;2023-08-17T00:29:07;3.80;;;1.40;;
54261;SDS011;40174;52.364;6.452;2023-08-17T00:31:34;2.30;;;1.20;;
54261;SDS011;40174;52.364;6.452;2023-08-17T00:34:00;3.40;;;1.23;;
54261;SDS011;40174;52.364;6.452;2023-08-17T00:36:28;3.30;;;1.20;;
54261;SDS011;40174;52.364;6.452;2023-08-17T00:38:55;6.35;;;1.30;;
54261;SDS011;40174;52.364;6.452;2023-08-17T00:41:22;3.20;;;1.10;;
54261;SDS011;40174;52.364;6.452;2023-08-17T00:43:48;6.40;;;1.45;;
54261;SDS011;40174;52.364;6.452;2023-08-17T00:46:16;4.78;;;1.08;;
54261;SDS011;40174;52.364;6.452;2023-08-17T00:48:45;3.83;;;1.17;;
54261;SDS011;40174;52.364;6.452;2023-08-17T00:51:13;3.20;;;0.90;;
54261;SDS011;40174;52.364;6.452;2023-08-17T00:53:41;6.43;;;1.25;;
54261;SDS011;40174;52.364;6.452;2023-08-17T00:56:08;3.65;;;1.05;;
54261;SDS011;40174;52.364;6.452;2023-08-17T00:58:35;5.40;;;1.50;;
54261;SDS011;40174;52.364;6.452;2023-08-17T01:01:02;5.15;;;1.20;;
54261;SDS011;40174;52.364;6.452;2023-08-17T01:03:28;7.55;;;1.73;;
54261;SDS011;40174;52.364;6.452;2023-08-17T01:05:55;3.45;;;1.33;;
54261;SDS011;40174;52.364;6.452;2023-08-17T01:08:23;2.42;;;1.10;;
54261;SDS011;40174;52.364;6.452;2023-08-17T01:10:52;1.60;;;0.95;;
54261;SDS011;40174;52.364;6.452;2023-08-17T01:13:28;2.05;;;1.10;;
54261;SDS011;40174;52.364;6.452;2023-08-17T01:16:00;2.93;;;0.83;;
54261;SDS011;40174;52.364;6.452;2023-08-17T01:18:32;3.88;;;1.30;;
54261;SDS011;40174;52.364;6.452;2023-08-17T01:21:01;2.33;;;1.23;;
54261;SDS011;40174;52.364;6.452;2023-08-17T01:23:32;6.97;;;1.20;;
54261;SDS011;40174;52.364;6.452;2023-08-17T01:25:58;4.82;;;1.63;;
54261;SDS011;40174;52.364;6.452;2023-08-17T01:28:25;1.20;;;0.82;;
54261;SDS011;40174;52.364;6.452;2023-08-17T01:30:53;3.00;;;1.25;;
54261;SDS011;40174;52.364;6.452;2023-08-17T01:33:24;4.45;;;1.23;;
54261;SDS011;40174;52.364;6.452;2023-08-17T01:35:58;6.25;;;1.52;;
54261;SDS011;40174;52.364;6.452;2023-08-17T01:38:32;4.30;;;1.15;;
54261;SDS011;40174;52.364;6.452;2023-08-17T01:41:00;1.83;;;0.90;;
54261;SDS011;40174;52.364;6.452;2023-08-17T01:43:28;4.90;;;1.45;;
54261;SDS011;40174;52.364;6.452;2023-08-17T01:45:56;4.47;;;1.10;;
54261;SDS011;40174;52.364;6.452;2023-08-17T01:48:22;2.58;;;1.33;;
54261;SDS011;40174;52.364;6.452;2023-08-17T01:50:49;2.13;;;1.05;;
54261;SDS011;40174;52.364;6.452;2023-08-17T01:53:19;6.13;;;1.30;;
54261;SDS011;40174;52.364;6.452;2023-08-17T01:55:47;3.88;;;1.20;;
54261;SDS011;40174;52.364;6.452;2023-08-17T01:58:14;3.38;;;1.02;;
54261;SDS011;40174;52.364;6.452;2023-08-17T02:00:41;3.92;;;1.13;;
54261;SDS011;40174;52.364;6.452;2023-08-17T02:03:08;5.70;;;1.30;;
54261;SDS011;40174;52.364;6.452;2023-08-17T02:05:35;4.25;;;1.25;;
54261;SDS011;40174;52.364;6.452;2023-08-17T02:08:01;2.72;;;1.50;;
54261;SDS011;40174;52.364;6.452;2023-08-17T02:10:28;4.97;;;1.58;;
54261;SDS011;40174;52.364;6.452;2023-08-17T02:12:56;4.15;;;1.20;;
54261;SDS011;40174;52.364;6.452;2023-08-17T02:15:23;3.10;;;1.10;;
54261;SDS011;40174;52.364;6.452;2023-08-17T02:17:49;6.10;;;1.60;;
54261;SDS011;40174;52.364;6.452;2023-08-17T02:20:16;3.58;;;1.48;;
54261;SDS011;40174;52.364;6.452;2023-08-17T02:22:43;4.30;;;1.30;;
54261;SDS011;40174;52.364;6.452;2023-08-17T02:25:10;2.35;;;1.23;;
54261;SDS011;40174;52.364;6.452;2023-08-17T02:27:36;4.85;;;1.70;;
54261;SDS011;40174;52.364;6.452;2023-08-17T02:30:05;5.03;;;1.20;;
54261;SDS011;40174;52.364;6.452;2023-08-17T02:32:33;5.93;;;1.17;;
54261;SDS011;40174;52.364;6.452;2023-08-17T02:34:59;2.20;;;0.95;;
54261;SDS011;40174;52.364;6.452;2023-08-17T02:37:26;2.22;;;0.82;;
54261;SDS011;40174;52.364;6.452;2023-08-17T02:39:53;4.43;;;1.23;;
54261;SDS011;40174;52.364;6.452;2023-08-17T02:42:20;4.63;;;1.40;;
54261;SDS011;40174;52.364;6.452;2023-08-17T02:44:48;2.30;;;0.98;;
54261;SDS011;40174;52.364;6.452;2023-08-17T02:47:16;4.55;;;1.63;;
54261;SDS011;40174;52.364;6.452;2023-08-17T02:49:42;2.10;;;1.10;;
54261;SDS011;40174;52.364;6.452;2023-08-17T02:52:09;4.60;;;1.23;;
54261;SDS011;40174;52.364;6.452;2023-08-17T02:54:36;8.60;;;1.40;;
54261;SDS011;40174;52.364;6.452;2023-08-17T02:57:02;3.25;;;1.10;;
54261;SDS011;40174;52.364;6.452;2023-08-17T02:59:29;3.58;;;1.13;;
54261;SDS011;40174;52.364;6.452;2023-08-17T03:01:57;4.05;;;1.38;;
54261;SDS011;40174;52.364;6.452;2023-08-17T03:04:26;3.33;;;1.10;;
54261;SDS011;40174;52.364;6.452;2023-08-17T03:06:55;5.05;;;1.33;;
54261;SDS011;40174;52.364;6.452;2023-08-17T03:09:22;2.38;;;0.85;;
54261;SDS011;40174;52.364;6.452;2023-08-17T03:11:48;3.10;;;1.20;;
54261;SDS011;40174;52.364;6.452;2023-08-17T03:14:15;5.45;;;1.23;;
54261;SDS011;40174;52.364;6.452;2023-08-17T03:16:41;5.82;;;1.05;;
54261;SDS011;40174;52.364;6.452;2023-08-17T03:19:08;4.95;;;1.25;;
54261;SDS011;40174;52.364;6.452;2023-08-17T03:21:38;2.90;;;1.10;;
54261;SDS011;40174;52.364;6.452;2023-08-17T03:24:05;8.57;;;1.20;;
54261;SDS011;40174;52.364;6.452;2023-08-17T03:26:33;2.85;;;1.10;;
54261;SDS011;40174;52.364;6.452;2023-08-17T03:28:59;2.90;;;1.02;;
54261;SDS011;40174;52.364;6.452;2023-08-17T03:31:26;2.72;;;1.10;;
54261;SDS011;40174;52.364;6.452;2023-08-17T03:33:54;3.92;;;1.13;;
54261;SDS011;40174;52.364;6.452;2023-08-17T03:36:21;5.78;;;1.27;;
54261;SDS011;40174;52.364;6.452;2023-08-17T03:38:49;3.22;;;1.23;;
54261;SDS011;40174;52.364;6.452;2023-08-17T03:41:17;4.30;;;1.13;;
54261;SDS011;40174;52.364;6.452;2023-08-17T03:43:44;1.77;;;1.15;;
54261;SDS011;40174;52.364;6.452;2023-08-17T03:46:12;2.92;;;1.23;;
54261;SDS011;40174;52.364;6.452;2023-08-17T03:48:39;4.18;;;1.13;;
54261;SDS011;40174;52.364;6.452;2023-08-17T03:51:06;7.20;;;1.33;;
54261;SDS011;40174;52.364;6.452;2023-08-17T03:53:33;5.10;;;1.70;;
54261;SDS011;40174;52.364;6.452;2023-08-17T03:56:01;4.00;;;1.30;;
54261;SDS011;40174;52.364;6.452;2023-08-17T03:58:28;2.42;;;0.93;;
54261;SDS011;40174;52.364;6.452;2023-08-17T04:00:58;2.70;;;1.20;;
54261;SDS011;40174;52.364;6.452;2023-08-17T04:03:28;4.18;;;1.17;;
54261;SDS011;40174;52.364;6.452;2023-08-17T04:05:54;2.67;;;1.23;;
54261;SDS011;40174;52.364;6.452;2023-08-17T04:08:21;3.70;;;1.27;;
54261;SDS011;40174;52.364;6.452;2023-08-17T04:10:48;4.45;;;1.40;;
54261;SDS011;40174;52.364;6.452;2023-08-17T04:13:16;1.20;;;0.80;;
54261;SDS011;40174;52.364;6.452;2023-08-17T04:15:43;3.38;;;1.35;;
54261;SDS011;40174;52.364;6.452;2023-08-17T04:18:09;0.90;;;0.80;;
54261;SDS011;40174;52.364;6.452;2023-08-17T04:20:36;2.78;;;0.93;;
54261;SDS011;40174;52.364;6.452;2023-08-17T04:23:03;1.88;;;0.95;;
54261;SDS011;40174;52.364;6.452;2023-08-17T04:25:30;2.22;;;0.90;;
54261;SDS011;40174;52.364;6.452;2023-08-17T04:27:58;2.97;;;1.15;;
54261;SDS011;40174;52.364;6.452;2023-08-17T04:30:26;1.75;;;0.88;;
54261;SDS011;40174;52.364;6.452;2023-08-17T04:32:58;2.85;;;1.08;;
54261;SDS011;40174;52.364;6.452;2023-08-17T04:35:25;4.45;;;1.02;;
54261;SDS011;40174;52.364;6.452;2023-08-17T04:37:52;2.33;;;0.80;;
54261;SDS011;40174;52.364;6.452;2023-08-17T04:40:19;1.02;;;0.88;;
54261;SDS011;40174;52.364;6.452;2023-08-17T04:42:46;4.25;;;1.00;;
54261;SDS011;40174;52.364;6.452;2023-08-17T04:45:13;6.18;;;0.98;;
54261;SDS011;40174;52.364;6.452;2023-08-17T04:47:44;3.70;;;1.15;;
54261;SDS011;40174;52.364;6.452;2023-08-17T04:50:11;0.85;;;0.70;;
54261;SDS011;40174;52.364;6.452;2023-08-17T04:52:41;2.63;;;0.77;;
54261;SDS011;40174;52.364;6.452;2023-08-17T04:55:08;1.75;;;0.98;;
54261;SDS011;40174;52.364;6.452;2023-08-17T04:57:35;6.80;;;1.02;;
54261;SDS011;40174;52.364;6.452;2023-08-17T05:00:02;2.78;;;0.88;;
54261;SDS011;40174;52.364;6.452;2023-08-17T05:02:29;2.35;;;0.70;;
54261;SDS011;40174;52.364;6.452;2023-08-17T05:04:58;2.65;;;1.00;;
54261;SDS011;40174;52.364;6.452;2023-08-17T05:07:25;1.75;;;1.00;;
54261;SDS011;40174;52.364;6.452;2023-08-17T05:09:53;4.72;;;1.20;;
54261;SDS011;40174;52.364;6.452;2023-08-17T05:12:20;2.28;;;0.90;;
54261;SDS011;40174;52.364;6.452;2023-08-17T05:14:47;2.63;;;1.05;;
54261;SDS011;40174;52.364;6.452;2023-08-17T05:17:13;4.05;;;1.08;;
54261;SDS011;40174;52.364;6.452;2023-08-17T05:19:40;5.72;;;1.05;;
54261;SDS011;40174;52.364;6.452;2023-08-17T05:22:10;4.20;;;1.15;;
54261;SDS011;40174;52.364;6.452;2023-08-17T05:24:37;1.60;;;0.95;;
54261;SDS011;40174;52.364;6.452;2023-08-17T05:27:06;2.75;;;1.00;;
54261;SDS011;40174;52.364;6.452;2023-08-17T05:29:33;2.60;;;1.00;;
54261;SDS011;40174;52.364;6.452;2023-08-17T05:31:59;4.38;;;0.90;;
54261;SDS011;40174;52.364;6.452;2023-08-17T05:34:27;4.78;;;1.20;;
54261;SDS011;40174;52.364;6.452;2023-08-17T05:36:54;1.63;;;0.80;;
54261;SDS011;40174;52.364;6.452;2023-08-17T05:39:22;3.42;;;1.40;;
54261;SDS011;40174;52.364;6.452;2023-08-17T05:41:49;4.68;;;1.33;;
54261;SDS011;40174;52.364;6.452;2023-08-17T05:44:16;5.13;;;1.20;;
54261;SDS011;40174;52.364;6.452;2023-08-17T05:46:42;1.75;;;1.10;;
54261;SDS011;40174;52.364;6.452;2023-08-17T05:49:09;2.85;;;1.15;;
54261;SDS011;40174;52.364;6.452;2023-08-17T05:51:36;4.03;;;1.30;;
54261;SDS011;40174;52.364;6.452;2023-08-17T05:54:03;7.20;;;1.20;;
54261;SDS011;40174;52.364;6.452;2023-08-17T05:56:32;3.55;;;0.85;;
54261;SDS011;40174;52.364;6.452;2023-08-17T05:58:59;10.13;;;1.23;;
54261;SDS011;40174;52.364;6.452;2023-08-17T06:01:25;2.70;;;0.93;;
54261;SDS011;40174;52.364;6.452;2023-08-17T06:03:52;4.00;;;1.20;;
54261;SDS011;40174;52.364;6.452;2023-08-17T06:06:19;1.67;;;0.82;;
54261;SDS011;40174;52.364;6.452;2023-08-17T06:08:46;3.40;;;1.10;;
54261;SDS011;40174;52.364;6.452;2023-08-17T06:11:12;6.20;;;1.17;;
54261;SDS011;40174;52.364;6.452;2023-08-17T06:13:40;3.35;;;1.27;;
54261;SDS011;40174;52.364;6.452;2023-08-17T06:16:07;3.42;;;1.10;;
54261;SDS011;40174;52.364;6.452;2023-08-17T06:18:33;3.22;;;1.10;;
54261;SDS011;40174;52.364;6.452;2023-08-17T06:21:00;3.50;;;1.17;;
54261;SDS011;40174;52.364;6.452;2023-08-17T06:23:27;3.08;;;1.30;;
54261;SDS011;40174;52.364;6.452;2023-08-17T06:25:55;3.75;;;1.00;;
54261;SDS011;40174;52.364;6.452;2023-08-17T06:28:22;4.38;;;1.35;;
54261;SDS011;40174;52.364;6.452;2023-08-17T06:30:52;3.55;;;1.10;;
54261;SDS011;40174;52.364;6.452;2023-08-17T06:33:19;3.67;;;1.08;;
54261;SDS011;40174;52.364;6.452;2023-08-17T06:35:46;5.13;;;1.30;;
54261;SDS011;40174;52.364;6.452;2023-08-17T06:38:12;2.85;;;1.35;;
54261;SDS011;40174;52.364;6.452;2023-08-17T06:40:39;4.03;;;1.25;;
54261;SDS011;40174;52.364;6.452;2023-08-17T06:43:06;6.47;;;1.40;;
54261;SDS011;40174;52.364;6.452;2023-08-17T06:45:33;6.97;;;1.10;;
54261;SDS011;40174;52.364;6.452;2023-08-17T06:48:01;4.80;;;0.98;;
54261;SDS011;40174;52.364;6.452;2023-08-17T06:50:28;2.28;;;1.10;;
54261;SDS011;40174;52.364;6.452;2023-08-17T06:52:55;6.07;;;1.33;;
54261;SDS011;40174;52.364;6.452;2023-08-17T06:55:21;6.28;;;1.42;;
54261;SDS011;40174;52.364;6.452;2023-08-17T06:57:48;1.80;;;1.20;;
54261;SDS011;40174;52.364;6.452;2023-08-17T07:00:17;1.38;;;0.90;;
54261;SDS011;40174;52.364;6.452;2023-08-17T07:02:45;3.25;;;1.38;;
54261;SDS011;40174;52.364;6.452;2023-08-17T07:05:14;2.60;;;1.13;;
54261;SDS011;40174;52.364;6.452;2023-08-17T07:07:40;5.63;;;1.38;;
54261;SDS011;40174;52.364;6.452;2023-08-17T07:10:08;2.83;;;0.98;;
54261;SDS011;40174;52.364;6.452;2023-08-17T07:12:35;4.90;;;1.30;;
54261;SDS011;40174;52.364;6.452;2023-08-17T07:15:02;5.78;;;1.15;;
54261;SDS011;40174;52.364;6.452;2023-08-17T07:17:29;5.00;;;1.27;;
54261;SDS011;40174;52.364;6.452;2023-08-17T07:19:56;4.25;;;1.05;;
54261;SDS011;40174;52.364;6.452;2023-08-17T07:22:24;2.22;;;0.90;;
54261;SDS011;40174;52.364;6.452;2023-08-17T07:24:51;3.08;;;0.90;;
54261;SDS011;40174;52.364;6.452;2023-08-17T07:27:18;2.65;;;1.02;;
54261;SDS011;40174;52.364;6.452;2023-08-17T07:29:44;1.70;;;0.80;;
54261;SDS011;40174;52.364;6.452;2023-08-17T07:32:11;3.38;;;1.00;;
54261;SDS011;40174;52.364;6.452;2023-08-17T07:34:38;3.17;;;1.05;;
54261;SDS011;40174;52.364;6.452;2023-08-17T07:37:04;2.70;;;0.90;;
54261;SDS011;40174;52.364;6.452;2023-08-17T07:39:32;4.05;;;0.80;;
54261;SDS011;40174;52.364;6.452;2023-08-17T07:41:59;3.10;;;0.90;;
54261;SDS011;40174;52.364;6.452;2023-08-17T07:44:26;4.25;;;1.27;;
54261;SDS011;40174;52.364;6.452;2023-08-17T07:46:53;5.10;;;1.30;;
54261;SDS011;40174;52.364;6.452;2023-08-17T07:49:20;1.73;;;1.20;;
54261;SDS011;40174;52.364;6.452;2023-08-17T07:51:48;6.88;;;1.23;;
54261;SDS011;40174;52.364;6.452;2023-08-17T07:54:15;3.83;;;1.10;;
54261;SDS011;40174;52.364;6.452;2023-08-17T07:56:43;3.75;;;1.10;;
54261;SDS011;40174;52.364;6.452;2023-08-17T07:59:09;5.68;;;1.35;;
54261;SDS011;40174;52.364;6.452;2023-08-17T08:01:36;4.53;;;1.02;;
54261;SDS011;40174;52.364;6.452;2023-08-17T08:04:05;2.95;;;0.90;;
54261;SDS011;40174;52.364;6.452;2023-08-17T08:06:32;2.83;;;1.08;;
54261;SDS011;40174;52.364;6.452;2023-08-17T08:08:59;3.05;;;1.08;;
54261;SDS011;40174;52.364;6.452;2023-08-17T08:11:25;1.45;;;0.73;;
54261;SDS011;40174;52.364;6.452;2023-08-17T08:13:56;1.88;;;1.00;;
54261;SDS011;40174;52.364;6.452;2023-08-17T08:16:23;1.98;;;0.90;;
54261;SDS011;40174;52.364;6.452;2023-08-17T08:18:50;4.43;;;1.20;;
54261;SDS011;40174;52.364;6.452;2023-08-17T08:21:16;2.40;;;0.85;;
54261;SDS011;40174;52.364;6.452;2023-08-17T08:23:43;5.65;;;1.20;;
54261;SDS011;40174;52.364;6.452;2023-08-17T08:26:10;4.68;;;1.33;;
54261;SDS011;40174;52.364;6.452;2023-08-17T08:28:36;4.30;;;1.25;;
54261;SDS011;40174;52.364;6.452;2023-08-17T08:31:04;2.78;;;0.90;;
54261;SDS011;40174;52.364;6.452;2023-08-17T08:33:31;3.40;;;1.15;;
54261;SDS011;40174;52.364;6.452;2023-08-17T08:35:58;2.83;;;0.90;;
54261;SDS011;40174;52.364;6.452;2023-08-17T08:38:25;1.38;;;0.82;;
54261;SDS011;40174;52.364;6.452;2023-08-17T08:40:51;3.80;;;0.80;;
54261;SDS011;40174;52.364;6.452;2023-08-17T08:43:18;5.57;;;1.10;;
54261;SDS011;40174;52.364;6.452;2023-08-17T08:45:45;1.95;;;1.10;;
54261;SDS011;40174;52.364;6.452;2023-08-17T08:48:15;2.85;;;0.82;;
54261;SDS011;40174;52.364;6.452;2023-08-17T08:50:45;3.80;;;0.73;;
54261;SDS011;40174;52.364;6.452;2023-08-17T08:53:13;2.75;;;0.82;;
54261;SDS011;40174;52.364;6.452;2023-08-17T08:55:42;4.13;;;0.98;;
54261;SDS011;40174;52.364;6.452;2023-08-17T08:58:13;2.10;;;1.00;;
54261;SDS011;40174;52.364;6.452;2023-08-17T09:00:42;3.72;;;1.20;;
54261;SDS011;40174;52.364;6.452;2023-08-17T09:03:09;6.00;;;0.80;;
54261;SDS011;40174;52.364;6.452;2023-08-17T09:05:38;2.63;;;1.17;;
54261;SDS011;40174;52.364;6.452;2023-08-17T09:08:08;3.58;;;1.20;;
54261;SDS011;40174;52.364;6.452;2023-08-17T09:10:36;4.78;;;1.08;;
54261;SDS011;40174;52.364;6.452;2023-08-17T09:13:04;2.42;;;1.00;;
54261;SDS011;40174;52.364;6.452;2023-08-17T09:15:30;3.40;;;0.80;;
54261;SDS011;40174;52.364;6.452;2023-08-17T09:17:57;4.13;;;0.93;;
54261;SDS011;40174;52.364;6.452;2023-08-17T09:20:38;3.90;;;1.20;;
54261;SDS011;40174;52.364;6.452;2023-08-17T09:23:10;4.53;;;1.48;;
54261;SDS011;40174;52.364;6.452;2023-08-17T09:25:39;4.20;;;1.35;;
54261;SDS011;40174;52.364;6.452;2023-08-17T09:28:07;2.33;;;1.02;;
54261;SDS011;40174;52.364;6.452;2023-08-17T09:30:51;4.38;;;1.75;;
54261;SDS011;40174;52.364;6.452;2023-08-17T09:33:19;6.18;;;1.30;;
54261;SDS011;40174;52.364;6.452;2023-08-17T09:35:48;6.70;;;1.40;;
54261;SDS011;40174;52.364;6.452;2023-08-17T09:38:15;5.43;;;1.40;;
54261;SDS011;40174;52.364;6.452;2023-08-17T09:40:42;3.63;;;1.10;;
54261;SDS011;40174;52.364;6.452;2023-08-17T09:43:09;1.75;;;0.80;;
54261;SDS011;40174;52.364;6.452;2023-08-17T09:45:37;5.30;;;1.05;;
54261;SDS011;40174;52.364;6.452;2023-08-17T09:48:04;1.88;;;1.20;;
54261;SDS011;40174;52.364;6.452;2023-08-17T09:50:31;2.88;;;1.05;;
54261;SDS011;40174;52.364;6.452;2023-08-17T09:53:00;6.55;;;1.13;;
54261;SDS011;40174;52.364;6.452;2023-08-17T09:55:29;4.15;;;1.10;;
54261;SDS011;40174;52.364;6.452;2023-08-17T09:57:56;2.30;;;1.23;;
54261;SDS011;40174;52.364;6.452;2023-08-17T10:00:24;7.97;;;1.48;;
54261;SDS011;40174;52.364;6.452;2023-08-17T10:02:52;6.30;;;1.30;;
54261;SDS011;40174;52.364;6.452;2023-08-17T10:05:19;3.60;;;0.95;;
54261;SDS011;40174;52.364;6.452;2023-08-17T10:07:49;3.35;;;1.25;;
54261;SDS011;40174;52.364;6.452;2023-08-17T10:10:22;6.07;;;1.15;;
54261;SDS011;40174;52.364;6.452;2023-08-17T10:12:53;3.38;;;1.13;;
54261;SDS011;40174;52.364;6.452;2023-08-17T10:15:24;2.78;;;1.10;;
54261;SDS011;40174;52.364;6.452;2023-08-17T10:18:09;2.88;;;1.30;;
54261;SDS011;40174;52.364;6.452;2023-08-17T10:20:45;3.63;;;1.50;;
54261;SDS011;40174;52.364;6.452;2023-08-17T10:23:22;4.60;;;1.30;;
54261;SDS011;40174;52.364;6.452;2023-08-17T10:25:51;2.22;;;1.00;;
54261;SDS011;40174;52.364;6.452;2023-08-17T10:28:18;2.20;;;1.33;;
54261;SDS011;40174;52.364;6.452;2023-08-17T10:30:47;2.88;;;1.20;;
54261;SDS011;40174;52.364;6.452;2023-08-17T10:33:14;4.32;;;1.85;;
54261;SDS011;40174;52.364;6.452;2023-08-17T10:35:41;2.55;;;1.35;;
54261;SDS011;40174;52.364;6.452;2023-08-17T10:38:09;4.13;;;1.23;;
54261;SDS011;40174;52.364;6.452;2023-08-17T10:40:37;7.25;;;1.52;;
54261;SDS011;40174;52.364;6.452;2023-08-17T10:43:08;4.78;;;1.75;;
54261;SDS011;40174;52.364;6.452;2023-08-17T10:45:37;3.85;;;1.42;;
54261;SDS011;40174;52.364;6.452;2023-08-17T10:51:02;1.83;;;1.17;;
54261;SDS011;40174;52.364;6.452;2023-08-17T10:53:34;1.73;;;1.10;;
54261;SDS011;40174;52.364;6.452;2023-08-17T10:56:06;4.35;;;1.48;;
54261;SDS011;40174;52.364;6.452;2023-08-17T10:58:35;4.35;;;1.40;;
54261;SDS011;40174;52.364;6.452;2023-08-17T11:01:02;2.72;;;1.50;;
54261;SDS011;40174;52.364;6.452;2023-08-17T11:03:29;4.60;;;1.25;;
54261;SDS011;40174;52.364;6.452;2023-08-17T11:05:55;4.05;;;1.23;;
54261;SDS011;40174;52.364;6.452;2023-08-17T11:08:27;3.67;;;1.52;;
54261;SDS011;40174;52.364;6.452;2023-08-17T11:10:58;3.35;;;1.67;;
54261;SDS011;40174;52.364;6.452;2023-08-17T11:13:27;3.33;;;1.60;;
54261;SDS011;40174;52.364;6.452;2023-08-17T11:15:57;3.70;;;1.40;;
54261;SDS011;40174;52.364;6.452;2023-08-17T11:18:25;3.70;;;1.85;;
54261;SDS011;40174;52.364;6.452;2023-08-17T11:20:52;5.40;;;1.70;;
54261;SDS011;40174;52.364;6.452;2023-08-17T11:23:20;5.43;;;1.80;;
54261;SDS011;40174;52.364;6.452;2023-08-17T11:25:48;5.10;;;1.30;;
54261;SDS011;40174;52.364;6.452;2023-08-17T11:28:16;2.85;;;1.20;;
54261;SDS011;40174;52.364;6.452;2023-08-17T11:30:43;5.63;;;1.63;;
54261;SDS011;40174;52.364;6.452;2023-08-17T11:33:11;4.60;;;1.67;;
54261;SDS011;40174;52.364;6.452;2023-08-17T11:35:38;5.07;;;1.63;;
54261;SDS011;40174;52.364;6.452;2023-08-17T11:38:05;4.63;;;1.67;;
54261;SDS011;40174;52.364;6.452;2023-08-17T11:40:33;2.85;;;1.67;;
54261;SDS011;40174;52.364;6.452;2023-08-17T11:43:00;3.08;;;1.42;;
54261;SDS011;40174;52.364;6.452;2023-08-17T11:45:26;3.05;;;1.30;;
54261;SDS011;40174;52.364;6.452;2023-08-17T11:47:53;4.82;;;1.92;;
54261;SDS011;40174;52.364;6.452;2023-08-17T11:50:21;4.65;;;1.60;;
54261;SDS011;40174;52.364;6.452;2023-08-17T11:52:50;3.60;;;1.60;;
54261;SDS011;40174;52.364;6.452;2023-08-17T11:55:17;5.22;;;1.67;;
54261;SDS011;40174;52.364;6.452;2023-08-17T11:57:45;3.25;;;1.38;;
54261;SDS011;40174;52.364;6.452;2023-08-17T12:00:16;5.70;;;1.83;;
54261;SDS011;40174;52.364;6.452;2023-08-17T12:02:46;4.68;;;2.00;;
54261;SDS011;40174;52.364;6.452;2023-08-17T12:05:13;5.13;;;1.80;;
54261;SDS011;40174;52.364;6.452;2023-08-17T12:07:46;3.67;;;1.90;;
54261;SDS011;40174;52.364;6.452;2023-08-17T12:10:13;4.68;;;2.00;;
54261;SDS011;40174;52.364;6.452;2023-08-17T12:12:39;3.90;;;2.10;;
54261;SDS011;40174;52.364;6.452;2023-08-17T12:15:06;7.88;;;2.33;;
54261;SDS011;40174;52.364;6.452;2023-08-17T12:17:35;8.95;;;2.50;;
54261;SDS011;40174;52.364;6.452;2023-08-17T12:20:07;2.85;;;1.67;;
54261;SDS011;40174;52.364;6.452;2023-08-17T12:22:34;6.22;;;1.90;;
54261;SDS011;40174;52.364;6.452;2023-08-17T12:25:02;7.22;;;2.38;;
54261;SDS011;40174;52.364;6.452;2023-08-17T12:27:31;7.25;;;2.50;;
54261;SDS011;40174;52.364;6.452;2023-08-17T12:29:58;3.80;;;1.98;;
54261;SDS011;40174;52.364;6.452;2023-08-17T12:32:25;4.25;;;2.05;;
54261;SDS011;40174;52.364;6.452;2023-08-17T12:34:52;5.35;;;2.08;;
54261;SDS011;40174;52.364;6.452;2023-08-17T12:37:19;6.07;;;2.28;;
54261;SDS011;40174;52.364;6.452;2023-08-17T12:39:46;3.28;;;1.60;;
54261;SDS011;40174;52.364;6.452;2023-08-17T12:42:15;4.30;;;1.92;;
54261;SDS011;40174;52.364;6.452;2023-08-17T12:44:43;4.82;;;2.22;;
54261;SDS011;40174;52.364;6.452;2023-08-17T12:47:10;5.85;;;2.58;;
54261;SDS011;40174;52.364;6.452;2023-08-17T12:49:36;4.60;;;2.05;;
54261;SDS011;40174;52.364;6.452;2023-08-17T12:52:03;4.38;;;2.20;;
54261;SDS011;40174;52.364;6.452;2023-08-17T12:54:30;5.35;;;2.15;;
54261;SDS011;40174;52.364;6.452;2023-08-17T12:56:57;4.47;;;2.15;;
54261;SDS011;40174;52.364;6.452;2023-08-17T12:59:25;4.88;;;2.33;;
54261;SDS011;40174;52.364;6.452;2023-08-17T13:01:52;4.93;;;2.20;;
54261;SDS011;40174;52.364;6.452;2023-08-17T13:04:18;3.78;;;1.88;;
54261;SDS011;40174;52.364;6.452;2023-08-17T13:06:45;5.10;;;2.20;;
54261;SDS011;40174;52.364;6.452;2023-08-17T13:09:13;4.78;;;2.03;;
54261;SDS011;40174;52.364;6.452;2023-08-17T13:11:41;5.85;;;2.35;;
54261;SDS011;40174;52.364;6.452;2023-08-17T13:14:08;4.35;;;2.10;;
54261;SDS011;40174;52.364;6.452;2023-08-17T13:16:36;8.60;;;2.40;;
54261;SDS011;40174;52.364;6.452;2023-08-17T13:19:03;5.47;;;2.45;;
54261;SDS011;40174;52.364;6.452;2023-08-17T13:21:30;5.90;;;2.45;;
54261;SDS011;40174;52.364;6.452;2023-08-17T13:23:56;4.68;;;2.38;;
54261;SDS011;40174;52.364;6.452;2023-08-17T13:26:23;5.00;;;2.22;;
54261;SDS011;40174;52.364;6.452;2023-08-17T13:28:50;4.55;;;2.25;;
54261;SDS011;40174;52.364;6.452;2023-08-17T13:31:16;4.90;;;2.33;;
54261;SDS011;40174;52.364;6.452;2023-08-17T13:33:45;7.15;;;2.40;;
54261;SDS011;40174;52.364;6.452;2023-08-17T13:36:11;10.05;;;2.67;;
54261;SDS011;40174;52.364;6.452;2023-08-17T13:38:38;6.38;;;2.75;;
54261;SDS011;40174;52.364;6.452;2023-08-17T13:41:05;6.57;;;2.40;;
54261;SDS011;40174;52.364;6.452;2023-08-17T13:43:31;5.93;;;2.63;;
54261;SDS011;40174;52.364;6.452;2023-08-17T13:45:58;5.63;;;2.47;;
54261;SDS011;40174;52.364;6.452;2023-08-17T13:48:25;5.78;;;2.40;;
54261;SDS011;40174;52.364;6.452;2023-08-17T13:50:53;8.18;;;2.60;;
54261;SDS011;40174;52.364;6.452;2023-08-17T13:53:19;6.57;;;2.67;;
54261;SDS011;40174;52.364;6.452;2023-08-17T13:55:46;5.30;;;3.00;;
54261;SDS011;40174;52.364;6.452;2023-08-17T13:58:13;6.68;;;2.42;;
54261;SDS011;40174;52.364;6.452;2023-08-17T14:00:40;6.03;;;3.08;;
54261;SDS011;40174;52.364;6.452;2023-08-17T14:03:07;8.13;;;3.00;;
54261;SDS011;40174;52.364;6.452;2023-08-17T14:05:34;7.40;;;3.00;;
54261;SDS011;40174;52.364;6.452;2023-08-17T14:08:02;6.20;;;3.17;;
54261;SDS011;40174;52.364;6.452;2023-08-17T14:10:29;4.97;;;2.65;;
54261;SDS011;40174;52.364;6.452;2023-08-17T14:12:56;6.38;;;2.67;;
54261;SDS011;40174;52.364;6.452;2023-08-17T14:15:23;4.60;;;2.58;;
54261;SDS011;40174;52.364;6.452;2023-08-17T14:17:49;6.45;;;2.90;;
54261;SDS011;40174;52.364;6.452;2023-08-17T14:20:16;14.48;;;5.32;;
54261;SDS011;40174;52.364;6.452;2023-08-17T14:22:43;8.13;;;3.45;;
54261;SDS011;40174;52.364;6.452;2023-08-17T14:25:11;7.60;;;3.67;;
54261;SDS011;40174;52.364;6.452;2023-08-17T14:27:37;8.57;;;3.25;;
54261;SDS011;40174;52.364;6.452;2023-08-17T14:30:05;7.57;;;3.45;;
54261;SDS011;40174;52.364;6.452;2023-08-17T14:32:32;7.85;;;3.90;;
54261;SDS011;40174;52.364;6.452;2023-08-17T14:34:59;13.65;;;3.70;;
54261;SDS011;40174;52.364;6.452;2023-08-17T14:37:25;5.40;;;3.22;;
54261;SDS011;40174;52.364;6.452;2023-08-17T14:39:52;5.07;;;2.75;;
54261;SDS011;40174;52.364;6.452;2023-08-17T14:42:20;7.63;;;3.03;;
54261;SDS011;40174;52.364;6.452;2023-08-17T14:44:48;6.75;;;3.55;;
54261;SDS011;40174;52.364;6.452;2023-08-17T14:47:15;5.22;;;2.67;;
54261;SDS011;40174;52.364;6.452;2023-08-17T14:49:41;6.88;;;3.60;;
54261;SDS011;40174;52.364;6.452;2023-08-17T14:52:08;4.00;;;2.03;;
54261;SDS011;40174;52.364;6.452;2023-08-17T14:54:35;6.45;;;2.78;;